createdAt,value
2022-12-18T00:00:10.568Z,100363.69
2022-12-18T00:02:45.642Z,100355.94
2022-12-18T00:05:14.054Z,100342.91
2022-12-18T00:07:42.347Z,100358.38
2022-12-18T00:10:11.037Z,100353.19
2022-12-18T00:12:46.167Z,100353.97
2022-12-18T00:15:15.885Z,100345.31
2022-12-18T00:17:44.358Z,100340.06
2022-12-18T00:20:13.461Z,100336.56
2022-12-18T00:22:41.727Z,100329.63
2022-12-18T00:25:10.524Z,100339.03
2022-12-18T00:27:38.805Z,100345.84
2022-12-18T00:30:07.893Z,100351.84
2022-12-18T00:32:38.104Z,100351.75
2022-12-18T00:35:07.213Z,100356.91
2022-12-18T00:37:35.997Z,100354.25
2022-12-18T00:40:05.291Z,100352.50
2022-12-18T00:42:51.181Z,100349.03
2022-12-18T00:45:19.872Z,100355.94
2022-12-18T00:47:49.682Z,100349.03
2022-12-18T00:50:18.261Z,100349.03
2022-12-18T00:52:46.737Z,100345.50
2022-12-18T00:55:15.909Z,100345.44
2022-12-18T00:57:44.818Z,100337.66
2022-12-18T01:00:16.281Z,100343.56
2022-12-18T01:02:45.030Z,100335.84
2022-12-18T01:05:15.886Z,100341.78
2022-12-18T01:07:44.485Z,100341.72
2022-12-18T01:10:14.400Z,100335.63
2022-12-18T01:12:42.773Z,100328.75
2022-12-18T01:15:14.429Z,100322.63
2022-12-18T01:17:42.907Z,100327.75
2022-12-18T01:20:13.037Z,100329.41
2022-12-18T01:22:42.736Z,100320.81
2022-12-18T01:25:11.526Z,100337.16
2022-12-18T01:27:39.912Z,100325.91
2022-12-18T01:30:09.297Z,100337.03
2022-12-18T01:32:37.685Z,100327.47
2022-12-18T01:35:06.684Z,100317.03
2022-12-18T01:37:35.056Z,100315.28
2022-12-18T01:40:04.849Z,100315.19
2022-12-18T01:42:33.098Z,100317.75
2022-12-18T01:45:06.037Z,100327.22
2022-12-18T01:47:38.865Z,100335.78
2022-12-18T01:50:12.497Z,100334.94
2022-12-18T01:52:43.289Z,100333.25
2022-12-18T01:55:14.628Z,100334.16
2022-12-18T01:57:43.681Z,100327.25
2022-12-18T02:00:15.438Z,100331.59
2022-12-18T02:02:47.228Z,100334.16
2022-12-18T02:05:18.756Z,100333.31
2022-12-18T02:07:57.579Z,100335.06
2022-12-18T02:10:37.020Z,100342.84
2022-12-18T02:13:11.990Z,100338.63
2022-12-18T02:15:46.364Z,100348.09
2022-12-18T02:18:20.877Z,100352.38
2022-12-18T02:20:53.459Z,100354.06
2022-12-18T02:23:36.491Z,100354.91
2022-12-18T02:26:16.627Z,100353.13
2022-12-18T02:28:52.281Z,100354.84
2022-12-18T02:31:26.080Z,100349.78
2022-12-18T02:33:58.774Z,100348.16
2022-12-18T02:36:29.912Z,100337.91
2022-12-18T02:39:01.152Z,100337.97
2022-12-18T02:41:32.176Z,100338.00
2022-12-18T02:44:03.439Z,100332.00
2022-12-18T02:46:37.552Z,100322.53
2022-12-18T02:49:23.949Z,100317.38
2022-12-18T02:51:57.639Z,100318.22
2022-12-18T02:54:38.740Z,100309.53
2022-12-18T02:57:19.603Z,100297.50
2022-12-18T02:59:56.270Z,100291.47
2022-12-18T03:02:29.296Z,100307.00
2022-12-18T03:05:03.482Z,100282.97
2022-12-18T03:07:39.123Z,100291.56
2022-12-18T03:10:16.806Z,100305.28
2022-12-18T03:12:52.869Z,100306.94
2022-12-18T03:15:28.828Z,100306.94
2022-12-18T03:18:08.986Z,100313.88
2022-12-18T03:20:40.846Z,100296.72
2022-12-18T03:23:14.129Z,100298.53
2022-12-18T03:25:51.058Z,100281.34
2022-12-18T03:28:23.831Z,100287.44
2022-12-18T03:31:01.764Z,100291.75
2022-12-18T03:33:35.053Z,100292.66
2022-12-18T03:36:03.793Z,100293.50
2022-12-18T03:38:32.271Z,100299.53
2022-12-18T03:41:09.314Z,100298.75
2022-12-18T03:43:53.296Z,100304.81
2022-12-18T03:46:29.699Z,100286.81
2022-12-18T03:49:04.196Z,100279.91
2022-12-18T03:51:41.916Z,100283.38
2022-12-18T03:54:12.217Z,100259.25
2022-12-18T03:56:50.837Z,100256.63
2022-12-18T03:59:22.269Z,100248.00
2022-12-18T04:01:55.962Z,100248.00
2022-12-18T04:04:26.307Z,100239.41
2022-12-18T04:06:55.525Z,100238.53
2022-12-18T04:09:26.504Z,100240.25
2022-12-18T04:11:55.098Z,100232.53
2022-12-18T04:14:24.877Z,100224.81
2022-12-18T04:16:56.973Z,100223.06
2022-12-18T04:19:31.186Z,100216.22
2022-12-18T04:22:00.674Z,100203.38
2022-12-18T04:24:32.014Z,100194.75
2022-12-18T04:27:11.361Z,100182.66
2022-12-18T04:29:46.355Z,100189.59
2022-12-18T04:32:14.578Z,100192.28
2022-12-18T04:34:45.364Z,100176.00
2022-12-18T04:37:13.736Z,100155.38
2022-12-18T04:39:41.934Z,100140.75
2022-12-18T04:42:17.225Z,100138.22
2022-12-18T04:44:46.889Z,100131.38
2022-12-18T04:47:15.073Z,100129.66
2022-12-18T04:49:43.326Z,100130.50
2022-12-18T04:52:11.459Z,100116.72
2022-12-18T04:54:39.668Z,100114.94
2022-12-18T04:57:07.925Z,100101.16
2022-12-18T04:59:36.123Z,100099.38
2022-12-18T05:02:05.850Z,100098.53
2022-12-18T05:04:34.206Z,100102.81
2022-12-18T05:07:02.378Z,100091.66
2022-12-18T05:09:30.658Z,100093.41
2022-12-18T05:11:58.921Z,100096.00
2022-12-18T05:14:28.599Z,100091.75
2022-12-18T05:17:00.635Z,100101.25
2022-12-18T05:19:30.761Z,100104.69
2022-12-18T05:21:59.161Z,100118.50
2022-12-18T05:24:27.637Z,100120.25
2022-12-18T05:26:55.875Z,100109.13
2022-12-18T05:29:24.280Z,100107.41
2022-12-18T05:31:52.619Z,100089.34
2022-12-18T05:34:20.967Z,100089.34
2022-12-18T05:36:50.697Z,100085.03
2022-12-18T05:39:19.485Z,100082.44
2022-12-18T05:41:47.730Z,100080.72
2022-12-18T05:44:15.937Z,100085.03
2022-12-18T05:46:44.213Z,100075.56
2022-12-18T05:49:12.621Z,100073.84
2022-12-18T05:51:40.835Z,100065.25
2022-12-18T05:54:11.044Z,100049.75
2022-12-18T05:56:41.970Z,100041.16
2022-12-18T05:59:13.796Z,100020.50
2022-12-18T06:01:42.134Z,100018.84
2022-12-18T06:04:10.438Z,100017.16
2022-12-18T06:06:38.826Z,100018.88
2022-12-18T06:09:09.354Z,100025.84
2022-12-18T06:11:40.107Z,100010.34
2022-12-18T06:14:08.843Z,100018.16
2022-12-18T06:16:37.111Z,100018.19
2022-12-18T06:19:07.135Z,100014.81
2022-12-18T06:21:36.097Z,100011.41
2022-12-18T06:24:04.658Z,100008.03
2022-12-18T06:26:32.936Z,100007.25
2022-12-18T06:29:02.496Z,100008.97
2022-12-18T06:31:30.812Z,100011.59
2022-12-18T06:33:59.057Z,100009.00
2022-12-18T06:36:33.065Z,100014.22
2022-12-18T06:39:01.396Z,100009.06
2022-12-18T06:41:29.588Z,100002.19
2022-12-18T06:43:59.937Z,99992.72
2022-12-18T06:46:29.936Z,99991.03
2022-12-18T06:48:58.267Z,99997.06
2022-12-18T06:51:26.891Z,99995.34
2022-12-18T06:53:55.068Z,99984.13
2022-12-18T06:56:23.374Z,99956.56
2022-12-18T06:58:52.358Z,99950.53
2022-12-18T07:01:21.190Z,99953.97
2022-12-18T07:03:54.696Z,99965.22
2022-12-18T07:06:25.307Z,99953.13
2022-12-18T07:08:55.663Z,99969.56
2022-12-18T07:11:24.202Z,99971.28
2022-12-18T07:13:52.477Z,99976.44
2022-12-18T07:16:25.345Z,99979.03
2022-12-18T07:18:57.286Z,99986.78
2022-12-18T07:21:26.459Z,99990.25
2022-12-18T07:23:54.934Z,99988.50
2022-12-18T07:26:24.111Z,99986.78
2022-12-18T07:28:52.676Z,99974.69
2022-12-18T07:31:23.439Z,99974.69
2022-12-18T07:33:52.927Z,99961.75
2022-12-18T07:36:24.884Z,99963.47
2022-12-18T07:38:53.917Z,99969.50
2022-12-18T07:41:22.734Z,99960.91
2022-12-18T07:43:50.975Z,99962.63
2022-12-18T07:46:19.729Z,99970.41
2022-12-18T07:48:50.052Z,99979.03
2022-12-18T07:51:19.644Z,99971.31
2022-12-18T07:53:52.481Z,99982.50
2022-12-18T07:56:27.730Z,100004.06
2022-12-18T07:58:57.221Z,99999.75
2022-12-18T08:01:25.780Z,99984.22
2022-12-18T08:03:54.324Z,99989.41
2022-12-18T08:06:24.105Z,99993.75
2022-12-18T08:08:55.563Z,99980.81
2022-12-18T08:11:25.419Z,99985.97
2022-12-18T08:13:54.535Z,99997.19
2022-12-18T08:16:23.279Z,100017.06
2022-12-18T08:18:51.682Z,100012.75
2022-12-18T08:21:24.112Z,100017.09
2022-12-18T08:23:55.260Z,100038.66
2022-12-18T08:26:24.496Z,100027.47
2022-12-18T08:28:53.090Z,100011.94
2022-12-18T08:31:22.183Z,100008.50
2022-12-18T08:33:52.171Z,100008.47
2022-12-18T08:36:20.837Z,100026.56
2022-12-18T08:38:49.467Z,100014.50
2022-12-18T08:41:20.527Z,100009.31
2022-12-18T08:44:06.154Z,100005.88
2022-12-18T08:46:36.756Z,99998.13
2022-12-18T08:49:05.856Z,100002.44
2022-12-18T08:51:34.496Z,99996.41
2022-12-18T08:54:02.800Z,99998.97
2022-12-18T08:56:34.337Z,99990.34
2022-12-18T08:59:02.588Z,99984.31
2022-12-18T09:01:30.992Z,99986.03
2022-12-18T09:04:00.288Z,99980.84
2022-12-18T09:06:28.698Z,99971.38
2022-12-18T09:08:56.908Z,99962.75
2022-12-18T09:11:27.761Z,99981.72
2022-12-18T09:13:58.952Z,99980.00
2022-12-18T09:16:32.326Z,99976.53
2022-12-18T09:19:01.428Z,99961.03
2022-12-18T09:21:32.278Z,99948.94
2022-12-18T09:24:08.843Z,99945.50
2022-12-18T09:26:38.547Z,99930.84
2022-12-18T09:29:09.857Z,99921.31
2022-12-18T09:31:38.987Z,99915.28
2022-12-18T09:34:07.198Z,99908.41
2022-12-18T09:36:35.583Z,99903.22
2022-12-18T09:39:07.892Z,99904.06
2022-12-18T09:41:45.536Z,99892.84
2022-12-18T09:44:22.132Z,99892.84
2022-12-18T09:46:57.995Z,99897.16
2022-12-18T09:49:31.207Z,99895.47
2022-12-18T09:52:04.313Z,99893.72
2022-12-18T09:54:38.111Z,99879.94
2022-12-18T09:57:06.697Z,99883.38
2022-12-18T09:59:39.023Z,99864.41
2022-12-18T10:02:17.381Z,99860.97
2022-12-18T10:04:47.843Z,99854.06
2022-12-18T10:07:21.131Z,99848.06
2022-12-18T10:09:59.354Z,99838.53
2022-12-18T10:12:34.801Z,99842.00
2022-12-18T10:15:10.515Z,99848.03
2022-12-18T10:17:48.369Z,99844.59
2022-12-18T10:20:32.168Z,99845.47
2022-12-18T10:23:06.322Z,99831.66
2022-12-18T10:25:40.958Z,99848.94
2022-12-18T10:28:14.384Z,99831.66
2022-12-18T10:30:45.435Z,99827.34
2022-12-18T10:33:18.120Z,99832.53
2022-12-18T10:35:47.825Z,99826.50
2022-12-18T10:38:34.974Z,99824.75
2022-12-18T10:41:04.961Z,99824.75
2022-12-18T10:43:34.427Z,99821.31
2022-12-18T10:46:15.952Z,99821.31
2022-12-18T10:48:54.458Z,99813.56
2022-12-18T10:51:26.275Z,99804.06
2022-12-18T10:53:58.360Z,99807.53
2022-12-18T10:56:29.221Z,99813.56
2022-12-18T10:59:02.500Z,99798.03
2022-12-18T11:01:47.392Z,99788.53
2022-12-18T11:04:20.647Z,99790.25
2022-12-18T11:06:57.347Z,99775.59
2022-12-18T11:09:27.167Z,99760.94
2022-12-18T11:11:57.731Z,99767.81
2022-12-18T11:14:28.141Z,99764.38
2022-12-18T11:19:55.445Z,99754.00
2022-12-18T11:22:27.571Z,99734.16
2022-12-18T11:25:30.932Z,99726.41
2022-12-18T11:27:51.673Z,99714.31
2022-12-18T11:30:25.598Z,99700.50
2022-12-18T11:32:57.901Z,99697.03
2022-12-18T11:35:38.313Z,99678.91
2022-12-18T11:38:19.563Z,99673.72
2022-12-18T11:40:54.566Z,99675.47
2022-12-18T11:43:29.513Z,99663.38
2022-12-18T11:46:04.810Z,99664.25
2022-12-18T11:48:39.425Z,99653.88
2022-12-18T11:51:14.817Z,99649.56
2022-12-18T11:53:43.427Z,99652.16
2022-12-18T11:56:29.276Z,99635.75
2022-12-18T11:59:06.649Z,99626.25
2022-12-18T12:01:51.277Z,99622.78
2022-12-18T12:04:38.463Z,99621.06
2022-12-18T12:07:22.085Z,99608.97
2022-12-18T12:09:59.043Z,99608.97
2022-12-18T12:12:49.130Z,99610.69
2022-12-18T12:15:30.694Z,99589.97
2022-12-18T12:18:11.466Z,99579.59
2022-12-18T12:20:50.787Z,99583.88
2022-12-18T12:23:28.658Z,99581.31
2022-12-18T12:26:03.525Z,99576.97
2022-12-18T12:28:54.795Z,99576.09
2022-12-18T12:31:34.956Z,99567.41
2022-12-18T12:34:11.767Z,99563.09
2022-12-18T12:36:53.106Z,99554.47
2022-12-18T12:39:27.505Z,99539.78
2022-12-18T12:42:13.522Z,99538.06
2022-12-18T12:44:48.996Z,99525.97
2022-12-18T12:47:26.843Z,99518.16
2022-12-18T12:49:56.150Z,99519.88
2022-12-18T12:52:32.805Z,99517.28
2022-12-18T12:55:04.169Z,99503.41
2022-12-18T12:57:40.294Z,99503.41
2022-12-18T13:00:13.873Z,99499.94
2022-12-18T13:02:49.484Z,99474.03
2022-12-18T13:05:26.276Z,99482.66
2022-12-18T13:08:01.436Z,99480.88
2022-12-18T13:10:36.276Z,99475.66
2022-12-18T13:13:08.970Z,99474.78
2022-12-18T13:15:41.978Z,99463.56
2022-12-18T13:18:30.085Z,99460.06
2022-12-18T13:21:24.457Z,99452.28
2022-12-18T13:23:54.006Z,99435.91
2022-12-18T13:26:40.766Z,99432.44
2022-12-18T13:29:09.266Z,99428.09
2022-12-18T13:32:02.803Z,99428.97
2022-12-18T13:34:33.102Z,99414.31
2022-12-18T13:37:35.218Z,99416.88
2022-12-18T13:40:26.008Z,99408.22
2022-12-18T13:43:11.648Z,99406.53
2022-12-18T13:45:43.851Z,99412.56
2022-12-18T13:48:21.327Z,99402.19
2022-12-18T13:50:57.111Z,99395.31
2022-12-18T13:53:29.294Z,99387.53
2022-12-18T13:55:59.467Z,99388.44
2022-12-18T13:58:27.739Z,99364.19
2022-12-18T14:00:56.371Z,99366.75
2022-12-18T14:03:27.204Z,99360.72
2022-12-18T14:05:59.044Z,99351.19
2022-12-18T14:08:33.015Z,99342.53
2022-12-18T14:11:05.606Z,99342.53
2022-12-18T14:13:37.424Z,99339.06
2022-12-18T14:16:08.549Z,99342.47
2022-12-18T14:18:45.965Z,99328.63
2022-12-18T14:21:23.044Z,99342.44
2022-12-18T14:23:51.504Z,99338.13
2022-12-18T14:26:29.834Z,99330.34
2022-12-18T14:28:58.491Z,99326.81
2022-12-18T14:31:29.193Z,99319.91
2022-12-18T14:33:57.891Z,99310.34
2022-12-18T14:36:27.849Z,99310.34
2022-12-18T14:38:57.819Z,99296.53
2022-12-18T14:41:28.842Z,99289.56
2022-12-18T14:43:58.166Z,99289.53
2022-12-18T14:46:34.867Z,99276.53
2022-12-18T14:49:05.493Z,99276.50
2022-12-18T14:51:35.886Z,99267.84
2022-12-18T14:54:10.194Z,99269.53
2022-12-18T14:56:46.534Z,99252.22
2022-12-18T14:59:24.081Z,99247.03
2022-12-18T15:02:01.326Z,99247.91
2022-12-18T15:04:33.406Z,99233.09
2022-12-18T15:07:12.396Z,99243.44
2022-12-18T15:09:45.230Z,99245.13
2022-12-18T15:12:28.268Z,99233.81
2022-12-18T15:14:56.571Z,99232.94
2022-12-18T15:17:26.792Z,99225.16
2022-12-18T15:20:02.173Z,99219.03
2022-12-18T15:22:32.739Z,99212.88
2022-12-18T15:25:01.640Z,99209.34
2022-12-18T15:27:38.836Z,99208.38
2022-12-18T15:30:26.303Z,99198.00
2022-12-18T15:33:15.045Z,99197.03
2022-12-18T15:35:46.993Z,99185.75
2022-12-18T15:38:15.606Z,99183.19
2022-12-18T15:40:43.934Z,99190.88
2022-12-18T15:43:30.998Z,99181.31
2022-12-18T15:45:59.256Z,99190.66
2022-12-18T15:48:27.455Z,99191.47
2022-12-18T15:50:59.569Z,99176.69
2022-12-18T15:53:31.561Z,99176.59
2022-12-18T15:56:17.687Z,99180.00
2022-12-18T15:58:47.742Z,99173.00
2022-12-18T16:01:19.695Z,99164.19
2022-12-18T16:03:48.214Z,99175.41
2022-12-18T16:06:16.553Z,99155.41
2022-12-18T16:08:44.860Z,99141.47
2022-12-18T16:11:38.789Z,99145.78
2022-12-18T16:14:22.146Z,99150.94
2022-12-18T16:16:52.992Z,99151.69
2022-12-18T16:19:22.171Z,99145.63
2022-12-18T16:21:52.367Z,99136.16
2022-12-18T16:24:23.182Z,99137.78
2022-12-18T16:26:52.477Z,99135.13
2022-12-18T16:29:28.160Z,99135.06
2022-12-18T16:31:56.878Z,99128.84
2022-12-18T16:34:29.575Z,99127.03
2022-12-18T16:37:04.816Z,99132.94
2022-12-18T16:39:35.174Z,99117.31
2022-12-18T16:42:05.942Z,99105.97
2022-12-18T16:44:36.526Z,99108.66
2022-12-18T16:47:05.877Z,99102.44
2022-12-18T16:49:36.634Z,99099.84
2022-12-18T16:52:06.373Z,99088.59
2022-12-18T16:54:35.192Z,99097.09
2022-12-18T16:57:03.597Z,99100.38
2022-12-18T16:59:31.943Z,99102.00
2022-12-18T17:02:15.646Z,99113.97
2022-12-18T17:04:46.338Z,99113.09
2022-12-18T17:07:14.845Z,99102.66
2022-12-18T17:09:43.690Z,99097.59
2022-12-18T17:12:12.111Z,99108.56
2022-12-18T17:14:40.478Z,99105.78
2022-12-18T17:17:25.382Z,99100.34
2022-12-18T17:19:54.086Z,99098.50
2022-12-18T17:22:23.187Z,99100.91
2022-12-18T17:24:51.497Z,99088.03
2022-12-18T17:27:19.709Z,99081.78
2022-12-18T17:29:49.004Z,99068.63
2022-12-18T17:32:18.937Z,99086.75
2022-12-18T17:34:47.304Z,99084.44
2022-12-18T17:37:15.729Z,99072.72
2022-12-18T17:39:44.204Z,99067.38
2022-12-18T17:42:15.511Z,99064.00
2022-12-18T17:44:44.607Z,99062.09
2022-12-18T17:47:13.414Z,99063.84
2022-12-18T17:49:42.986Z,99054.00
2022-12-18T17:52:11.529Z,99053.78
2022-12-18T17:54:42.281Z,99034.41
2022-12-18T17:57:10.999Z,99056.88
2022-12-18T17:59:39.313Z,99043.56
2022-12-18T18:02:08.128Z,99033.09
2022-12-18T18:04:37.039Z,99032.13
2022-12-18T18:07:06.546Z,99032.13
2022-12-18T18:09:34.889Z,99019.56
2022-12-18T18:12:20.710Z,99012.34
2022-12-18T18:14:50.605Z,99001.44
2022-12-18T18:17:19.846Z,99016.03
2022-12-18T18:19:49.594Z,99004.56
2022-12-18T18:22:20.150Z,99016.56
2022-12-18T18:24:48.716Z,99023.16
2022-12-18T18:27:17.021Z,99007.66
2022-12-18T18:29:45.520Z,99012.66
2022-12-18T18:32:13.856Z,99009.22
2022-12-18T18:34:42.188Z,98998.81
2022-12-18T18:37:11.966Z,98988.38
2022-12-18T18:39:41.644Z,98979.56
2022-12-18T18:42:09.980Z,98972.41
2022-12-18T18:44:38.358Z,98967.19
2022-12-18T18:47:08.586Z,98968.97
2022-12-18T18:49:38.096Z,98955.97
2022-12-18T18:52:07.226Z,98961.63
2022-12-18T18:54:35.619Z,98958.28
2022-12-18T18:57:23.362Z,98949.53
2022-12-18T18:59:53.546Z,98935.47
2022-12-18T19:02:21.802Z,98932.72
2022-12-18T19:04:50.166Z,98925.03
2022-12-18T19:07:29.785Z,98921.28
2022-12-18T19:10:04.638Z,98913.94
2022-12-18T19:12:53.202Z,98905.97
2022-12-18T19:15:23.223Z,98898.16
2022-12-18T19:17:51.813Z,98894.44
2022-12-18T19:20:20.863Z,98890.91
2022-12-18T19:22:55.228Z,98887.09
2022-12-18T19:25:38.576Z,98885.25
2022-12-18T19:28:21.502Z,98891.09
2022-12-18T19:30:58.591Z,98889.38
2022-12-18T19:33:45.031Z,98887.34
2022-12-18T19:36:18.527Z,98888.22
2022-12-18T19:38:47.402Z,98884.06
2022-12-18T19:41:16.728Z,98878.97
2022-12-18T19:43:47.117Z,98875.06
2022-12-18T19:46:17.881Z,98856.59
2022-12-18T19:48:47.152Z,98838.25
2022-12-18T19:51:17.757Z,98843.31
2022-12-18T19:53:46.717Z,98857.31
2022-12-18T19:56:17.284Z,98857.31
2022-12-18T19:58:47.014Z,98858.16
2022-12-18T20:01:17.543Z,98856.44
2022-12-18T20:03:52.456Z,98852.69
2022-12-18T20:06:27.638Z,98850.44
2022-12-18T20:09:00.162Z,98849.41
2022-12-18T20:11:29.407Z,98840.16
2022-12-18T20:14:05.258Z,98852.19
2022-12-18T20:16:33.568Z,98853.06
2022-12-18T20:19:01.918Z,98844.16
2022-12-18T20:21:30.710Z,98837.09
2022-12-18T20:24:00.137Z,98837.09
2022-12-18T20:26:29.110Z,98836.38
2022-12-18T20:28:58.704Z,98837.66
2022-12-18T20:31:27.007Z,98834.03
2022-12-18T20:34:00.199Z,98830.50
2022-12-18T20:36:30.821Z,98835.72
2022-12-18T20:39:02.695Z,98844.22
2022-12-18T20:41:37.859Z,98836.13
2022-12-18T20:44:21.600Z,98819.25
2022-12-18T20:46:54.140Z,98828.84
2022-12-18T20:49:22.999Z,98813.88
2022-12-18T20:51:52.687Z,98815.50
2022-12-18T20:54:21.807Z,98811.78
2022-12-18T20:56:50.180Z,98803.94
2022-12-18T20:59:20.007Z,98818.44
2022-12-18T21:01:49.491Z,98805.41
2022-12-18T21:04:19.300Z,98811.63
2022-12-18T21:06:53.017Z,98816.59
2022-12-18T21:09:23.916Z,98812.03
2022-12-18T21:12:11.112Z,98806.78
2022-12-18T21:14:46.186Z,98812.66
2022-12-18T21:17:16.042Z,98810.81
2022-12-18T21:19:44.267Z,98808.84
2022-12-18T21:22:13.639Z,98799.94
2022-12-18T21:24:41.884Z,98791.03
2022-12-18T21:27:10.083Z,98787.75
2022-12-18T21:29:43.731Z,98791.22
2022-12-18T21:32:13.777Z,98782.69
2022-12-18T21:34:47.645Z,98793.84
2022-12-18T21:37:16.674Z,98792.72
2022-12-18T21:39:45.026Z,98783.66
2022-12-18T21:42:31.052Z,98782.72
2022-12-18T21:45:00.907Z,98778.41
2022-12-18T21:47:29.196Z,98782.16
2022-12-18T21:49:57.467Z,98782.94
2022-12-18T21:52:31.892Z,98781.84
2022-12-18T21:55:07.921Z,98780.69
2022-12-18T21:57:38.202Z,98787.00
2022-12-18T22:00:18.597Z,98766.84
2022-12-18T22:03:02.316Z,98785.50
2022-12-18T22:05:36.979Z,98773.66
2022-12-18T22:08:06.960Z,98765.94
2022-12-18T22:10:35.615Z,98772.06
2022-12-18T22:13:04.043Z,98768.91
2022-12-18T22:15:33.976Z,98754.56
2022-12-18T22:18:02.206Z,98752.25
2022-12-18T22:20:30.753Z,98752.56
2022-12-18T22:22:59.165Z,98754.13
2022-12-18T22:25:31.055Z,98757.66
2022-12-18T22:28:16.867Z,98746.31
2022-12-18T22:30:46.441Z,98746.28
2022-12-18T22:33:14.690Z,98730.53
2022-12-18T22:35:43.205Z,98734.53
2022-12-18T22:38:11.900Z,98737.38
2022-12-18T22:40:40.155Z,98731.00
2022-12-18T22:43:08.471Z,98742.16
2022-12-18T22:45:38.377Z,98738.59
2022-12-18T22:48:08.643Z,98744.88
2022-12-18T22:50:36.916Z,98749.63
2022-12-18T22:53:07.791Z,98728.34
2022-12-18T22:55:36.097Z,98733.28
2022-12-18T22:58:04.477Z,98730.53
2022-12-18T23:00:32.925Z,98732.34
2022-12-18T23:03:01.445Z,98717.41
2022-12-18T23:05:32.535Z,98723.59
2022-12-18T23:08:00.871Z,98719.25
2022-12-18T23:10:29.166Z,98720.63
2022-12-18T23:12:57.444Z,98724.16
2022-12-18T23:15:28.530Z,98717.75
2022-12-18T23:17:59.116Z,98725.72
2022-12-18T23:20:28.055Z,98720.31
2022-12-18T23:22:57.557Z,98719.53
2022-12-18T23:25:25.986Z,98715.97
2022-12-18T23:27:54.198Z,98712.94
2022-12-18T23:30:22.538Z,98712.44
2022-12-18T23:32:50.853Z,98710.06
2022-12-18T23:35:19.369Z,98713.13
2022-12-18T23:38:04.196Z,98707.56
2022-12-18T23:40:33.979Z,98695.50
2022-12-18T23:43:02.181Z,98690.88
2022-12-18T23:45:30.381Z,98688.53
2022-12-18T23:47:58.663Z,98683.84
2022-12-18T23:50:29.538Z,98689.28
2022-12-18T23:53:05.138Z,98684.34
2022-12-18T23:55:40.567Z,98682.31
2022-12-18T23:58:10.028Z,98692.75
